Home > Products > Valid Products > TAF

000
FTUS43 KSGF 202300
TAFJLN
TAF
KJLN 202320Z 2100/2124 VRB03KT P6SM SKC
     FM210700 00000KT 5SM BR SKC
     FM210900 00000KT 1SM BR SCT002
      TEMPO 2111/2114 1/2SM FG VV002
     FM211400 VRB03KT 4SM BR SCT004
     FM211500 VRB04KT P6SM SKC=



000
FTUS43 KSGF 202300
TAFSGF
TAF
KSGF 202320Z 2100/2124 VRB04KT P6SM SKC
     FM210700 00000KT 5SM BR SKC
     FM210900 00000KT 1SM BR SCT002
      TEMPO 2111/2114 1/2SM FG VV002
     FM211400 VRB03KT 4SM BR SCT004
     FM211500 VRB04KT P6SM SKC=



000
FTUS43 KSGF 201700
TAFJLN
TAF
KJLN 201720Z 2018/2118 23008KT P6SM SKC
     FM210100 VRB03KT P6SM SKC
     FM210800 VRB03KT 5SM BR SKC
     FM211500 VRB04KT P6SM SKC=



000
FTUS43 KSGF 201700
TAFSGF
TAF
KSGF 201720Z 2018/2118 27009KT P6SM BKN050
     FM202000 33006KT P6SM SKC
     FM210600 VRB03KT 5SM BR SKC
     FM211000 VRB03KT 1SM BR SKC
     FM211500 VRB04KT P6SM SKC=



000
FTUS43 KSGF 201200 AAA
TAFSGF
TAF AMD
KSGF 201251Z 2013/2112 23004KT P6SM SCT030 BKN060
     FM201600 28007KT P6SM SCT030
     FM202000 33006KT P6SM SCT035
     FM210100 VRB03KT P6SM SKC=



000
FTUS43 KSGF 201200 AAA
TAFJLN
TAF AMD
KJLN 201251Z 2013/2112 22006KT P6SM SCT030 BKN070
     FM201600 27006KT P6SM SCT030
     FM202100 33006KT P6SM SCT035
     FM210100 VRB03KT P6SM SKC=



000
FTUS43 KSGF 201100
TAFJLN
TAF
KJLN 201133Z 2012/2112 23006KT P6SM SCT030 BKN070
      TEMPO 2012/2016 -SHRA BKN025 OVC070
     FM201600 27006KT P6SM SCT030
     FM202100 33006KT P6SM SCT035
     FM210100 VRB03KT P6SM SKC=



000
FTUS43 KSGF 201100
TAFSGF
TAF
KSGF 201133Z 2012/2112 23006KT P6SM SCT030 BKN060
      TEMPO 2012/2016 -SHRA BKN025 OVC060
     FM201600 28007KT P6SM SCT030
     FM202000 33006KT P6SM SCT035
     FM210100 VRB03KT P6SM SKC=



000
FTUS43 KSGF 200500
TAFSGF
TAF
KSGF 200520Z 2006/2106 19007KT P6SM BKN070 OVC150
     FM201300 23007KT P6SM BKN050 OVC100
     FM201600 27007KT P6SM BKN050
     FM202000 32006KT P6SM SKC
     FM210000 VRB04KT P6SM SKC=



000
FTUS43 KSGF 200500
TAFJLN
TAF
KJLN 200520Z 2006/2106 19007KT P6SM VCSH BKN070 OVC150
     FM201000 21006KT P6SM VCSH BKN050 OVC100
     FM201500 25006KT P6SM BKN050
     FM201900 33005KT P6SM SKC
     FM202300 VRB04KT P6SM SKC=



000
FTUS43 KSGF 192300
TAFJLN
TAF
KJLN 192320Z 2000/2024 19005KT P6SM FEW120 SCT200
     FM200400 19007KT P6SM BKN070 OVC150
     FM201000 21006KT P6SM BKN050 OVC100
     FM201500 25006KT P6SM BKN050
     FM201900 33005KT P6SM SKC=



000
FTUS43 KSGF 192300
TAFSGF
TAF
KSGF 192320Z 2000/2024 19005KT P6SM FEW120 SCT200
     FM200500 19007KT P6SM BKN070 OVC150
     FM201300 23007KT P6SM BKN050 OVC100
     FM201600 27007KT P6SM BKN050
     FM202000 32006KT P6SM SKC=



000
FTUS43 KSGF 192300
TAFJLN
TAF
KJLN 192320Z 2000/2024 19005KT P6SM FEW120 SCT200
     FM200400 19007KT P6SM BKN070 OVC150
     FM201000 21006KT P6SM BKN050 OVC100
     FM201500 25006KT P6SM BKN050
     FM201900 33005KT P6SM SKC=



000
FTUS43 KSGF 192300
TAFSGF
TAF
KSGF 192320Z 2000/2024 19005KT P6SM FEW120 SCT200
     FM200500 19007KT P6SM BKN070 OVC150
     FM201300 23007KT P6SM BKN050 OVC100
     FM201600 27007KT P6SM BKN050
     FM202000 32006KT P6SM SKC=



000
FTUS43 KSGF 191700
TAFSGF
TAF
KSGF 191720Z 1918/2018 18010KT P6SM SCT150 BKN250
     FM192000 20008KT P6SM BKN150
     FM200100 18005KT P6SM SCT040 BKN100
     FM201000 22006KT P6SM OVC040=



000
FTUS43 KSGF 191700
TAFJLN
TAF
KJLN 191720Z 1918/2018 20009KT P6SM BKN150
     FM192100 18005KT P6SM SCT045 BKN100
     FM200900 21006KT P6SM OVC040=



000
FTUS43 KSGF 191100
TAFSGF
TAF
KSGF 191128Z 1912/2012 16006KT P6SM BKN200
     FM191700 21008KT P6SM BKN150
     FM200000 17005KT P6SM SCT040 BKN100
     FM201000 19006KT P6SM OVC040=



000
FTUS43 KSGF 191100
TAFJLN
TAF
KJLN 191128Z 1912/2012 16006KT P6SM BKN200
     FM191700 20009KT P6SM BKN150
     FM200000 18005KT P6SM SCT045 BKN100
     FM200900 20006KT P6SM OVC045=



000
FTUS43 KSGF 190500
TAFSGF
TAF
KSGF 190520Z 1906/2006 VRB04KT P6SM FEW200
     FM191300 16007KT P6SM SCT200
     FM191900 19008KT P6SM BKN150=



000
FTUS43 KSGF 190500
TAFJLN
TAF
KJLN 190520Z 1906/2006 VRB04KT P6SM FEW200
     FM191400 16007KT P6SM SCT200
     FM191800 19008KT P6SM BKN150=



000
FTUS43 KSGF 182300
TAFJLN
TAF
KJLN 182320Z 1900/1924 VRB04KT P6SM FEW200
     FM191100 16006KT P6SM SCT200
     FM191800 19008KT P6SM SCT200=



000
FTUS43 KSGF 182300
TAFSGF
TAF
KSGF 182320Z 1900/1924 VRB05KT P6SM FEW200
     FM190900 15007KT P6SM SCT200
     FM191700 19008KT P6SM SCT200=



000
FTUS43 KSGF 181700
TAFSGF
TAF
KSGF 181720Z 1818/1918 36007KT P6SM FEW020
     FM190000 VRB05KT P6SM FEW200
     FM191500 15008KT P6SM SCT250=



000
FTUS43 KSGF 181700
TAFJLN
TAF
KJLN 181720Z 1818/1918 02006KT P6SM FEW200
     FM190000 VRB04KT P6SM FEW200
     FM191500 17009KT P6SM SCT250=



000
FTUS43 KSGF 181100
TAFJLN
TAF
KJLN 181120Z 1812/1912 02006KT P6SM FEW250
     FM190000 07004KT P6SM FEW250
     FM190500 12004KT P6SM BKN250=



000
FTUS43 KSGF 181100
TAFSGF
TAF
KSGF 181120Z 1812/1912 36007KT P6SM FEW250
     FM190000 05005KT P6SM FEW250
     FM190500 11005KT P6SM BKN250=



000
FTUS43 KSGF 181100
TAFJLN
TAF
KJLN 181120Z 1812/1912 02006KT P6SM FEW250
     FM190000 07004KT P6SM FEW250
     FM190500 12004KT P6SM BKN250=



000
FTUS43 KSGF 181100
TAFSGF
TAF
KSGF 181120Z 1812/1912 36007KT P6SM FEW250
     FM190000 05005KT P6SM FEW250
     FM190500 11005KT P6SM BKN250=



000
FTUS43 KSGF 180500
TAFSGF
TAF
KSGF 180520Z 1806/1906 35007KT P6SM SKC
     FM190000 VRB05KT P6SM SKC=



000
FTUS43 KSGF 180500
TAFJLN
TAF
KJLN 180520Z 1806/1906 02006KT P6SM SKC
     FM190000 VRB04KT P6SM SKC=



    US Dept of Commerce
    National Oceanic and Atmospheric Administration
    National Weather Service
    1325 East West Highway
    Silver Spring, MD 20910
    Page Author: NWS Internet Services Team
Disclaimer
Information Quality
Credits
Glossary
Privacy Policy
Freedom of Information Act (FOIA)
About Us
Career Opportunities